Aeroporto :
LOGIN :

Iscrizione | Disclaimer

   EN    FR    IT 

 










Sommario :    VFR   VFR Marginale   IFR   IFR Intensivo   IFR Molto Intensivo
Visibilità : 
Base nubi : 
>= 8 km
>= 3000ft
5 / 8 km
1000 / 3000 ft
1500m / 5 km
500 / 1000 ft
800 / 1500m
200 / 500 ft
< 800m
< 200 ft
Simboli :   Temporali  Nebbia  Neve Forte  Precipitazioni Forti  Vento > 20 kt
SIGMETs :   Varie  Temporali  Ghiacco  Turbolenza  Onda orograficha  Ceneri Vulcaniche






- Altitudine del aeroporto : 231 ft
- Codice IATA : WTN


EGXW - RAF Waddington

ULTIMO METAR :
  • 082050Z AUTO 23013KT 9999 -RA SCT013/// BKN027/// 05/03 Q0991

METARs OBSOLETI :
  • 081950Z AUTO 23016KT 9999 BKN013/// BKN020/// 04/02 Q0990 RERA
  • 081920Z 22017KT 9999 -RA BKN015 05/02 Q0990 NOSIG RMK WHT WHT
  • 081850Z 22016KT 9999 OVC018 05/02 Q0990 NOSIG RMK WHT WHT

TAF TAF EGXW
Valido dal 08 a 18 ore il 09 a 12 ore UTC


081652Z 0818/0912 22018G28KT 9999 BKN022
TEMPO 0818/0903 BKN026
BECMG 0819/0822 22013KT
PROB30
TEMPO 0821/0903 6000 RA BKN010
BECMG 0903/0906 SCT025
TEMPO 0906/0910 SCT008 BKN018



MetMap, La meteo Aeronautica in un colpo d'occhio ! - Copyright ORBIFLY Dicembre 2007 - Disclaimer

ORBIFLY MET'MAP TEAM :

Programmazione e sviluppo : Alexandra Zaïnal
Concezione : Baudouin d'Aumeries
Aiuto per la programmazione : Marc-Olivier Méhu
Supporto tecnico e logistico : Manuel Goepfert
Aiuto per la traduzione : Arnaldo La Scala

Contatto : metmap@orbifly.com




FONTI E CREDITI :

   NOAA